sensor_id;sensor_type;location;lat;lon;timestamp;temperature;humidity
47310;DHT22;33046;52.270;6.832;2023-09-18T00:00:15;20.90;99.90
47310;DHT22;33046;52.270;6.832;2023-09-18T00:02:22;20.90;99.90
47310;DHT22;33046;52.270;6.832;2023-09-18T00:04:29;20.90;99.90
47310;DHT22;33046;52.270;6.832;2023-09-18T00:06:36;20.90;99.90
47310;DHT22;33046;52.270;6.832;2023-09-18T00:08:43;20.90;99.90
47310;DHT22;33046;52.270;6.832;2023-09-18T00:10:53;20.90;99.90
47310;DHT22;33046;52.270;6.832;2023-09-18T00:13:00;20.90;99.90
47310;DHT22;33046;52.270;6.832;2023-09-18T00:15:09;20.90;99.90
47310;DHT22;33046;52.270;6.832;2023-09-18T00:17:16;20.90;99.90
47310;DHT22;33046;52.270;6.832;2023-09-18T00:19:23;20.90;99.90
47310;DHT22;33046;52.270;6.832;2023-09-18T00:21:30;20.90;99.90
47310;DHT22;33046;52.270;6.832;2023-09-18T00:23:37;20.90;99.90
47310;DHT22;33046;52.270;6.832;2023-09-18T00:25:44;20.90;99.90
47310;DHT22;33046;52.270;6.832;2023-09-18T00:27:51;20.90;99.90
47310;DHT22;33046;52.270;6.832;2023-09-18T00:29:58;20.90;99.90
47310;DHT22;33046;52.270;6.832;2023-09-18T00:32:06;20.90;99.90
47310;DHT22;33046;52.270;6.832;2023-09-18T00:34:14;20.90;99.90
47310;DHT22;33046;52.270;6.832;2023-09-18T00:36:21;20.90;99.90
47310;DHT22;33046;52.270;6.832;2023-09-18T00:38:28;20.90;99.90
47310;DHT22;33046;52.270;6.832;2023-09-18T00:40:34;20.90;99.90
47310;DHT22;33046;52.270;6.832;2023-09-18T00:42:42;20.90;99.90
47310;DHT22;33046;52.270;6.832;2023-09-18T00:44:49;20.90;99.90
47310;DHT22;33046;52.270;6.832;2023-09-18T00:46:56;20.90;99.90
47310;DHT22;33046;52.270;6.832;2023-09-18T00:49:04;20.80;99.90
47310;DHT22;33046;52.270;6.832;2023-09-18T00:51:13;20.90;99.90
47310;DHT22;33046;52.270;6.832;2023-09-18T00:53:22;20.90;99.90
47310;DHT22;33046;52.270;6.832;2023-09-18T00:55:30;20.90;99.90
47310;DHT22;33046;52.270;6.832;2023-09-18T00:57:38;20.80;99.90
47310;DHT22;33046;52.270;6.832;2023-09-18T00:59:45;20.80;99.90
47310;DHT22;33046;52.270;6.832;2023-09-18T01:01:52;20.90;99.90
47310;DHT22;33046;52.270;6.832;2023-09-18T01:03:59;20.90;99.90
47310;DHT22;33046;52.270;6.832;2023-09-18T01:06:08;20.80;99.90
47310;DHT22;33046;52.270;6.832;2023-09-18T01:08:15;20.80;99.90
47310;DHT22;33046;52.270;6.832;2023-09-18T01:10:24;20.80;99.90
47310;DHT22;33046;52.270;6.832;2023-09-18T01:12:41;20.80;99.90
47310;DHT22;33046;52.270;6.832;2023-09-18T01:14:56;20.80;99.90
47310;DHT22;33046;52.270;6.832;2023-09-18T01:17:05;20.80;99.90
47310;DHT22;33046;52.270;6.832;2023-09-18T01:19:12;20.80;99.90
47310;DHT22;33046;52.270;6.832;2023-09-18T01:21:21;20.70;99.90
47310;DHT22;33046;52.270;6.832;2023-09-18T01:23:29;20.80;99.90
47310;DHT22;33046;52.270;6.832;2023-09-18T01:25:36;20.80;99.90
47310;DHT22;33046;52.270;6.832;2023-09-18T01:27:43;20.80;99.90
47310;DHT22;33046;52.270;6.832;2023-09-18T01:29:50;20.80;99.90
47310;DHT22;33046;52.270;6.832;2023-09-18T01:31:57;20.80;99.90
47310;DHT22;33046;52.270;6.832;2023-09-18T01:34:05;20.80;99.90
47310;DHT22;33046;52.270;6.832;2023-09-18T01:36:12;20.80;99.90
47310;DHT22;33046;52.270;6.832;2023-09-18T01:38:21;20.80;99.90
47310;DHT22;33046;52.270;6.832;2023-09-18T01:40:31;20.80;99.90
47310;DHT22;33046;52.270;6.832;2023-09-18T01:42:39;20.80;99.90
47310;DHT22;33046;52.270;6.832;2023-09-18T01:44:47;20.70;99.90
47310;DHT22;33046;52.270;6.832;2023-09-18T01:46:55;20.80;99.90
47310;DHT22;33046;52.270;6.832;2023-09-18T01:49:03;20.80;99.90
47310;DHT22;33046;52.270;6.832;2023-09-18T01:51:13;20.80;99.90
47310;DHT22;33046;52.270;6.832;2023-09-18T01:53:20;20.80;99.90
47310;DHT22;33046;52.270;6.832;2023-09-18T01:55:27;20.80;99.90
47310;DHT22;33046;52.270;6.832;2023-09-18T01:57:35;20.80;99.90
47310;DHT22;33046;52.270;6.832;2023-09-18T01:59:42;20.80;99.90
47310;DHT22;33046;52.270;6.832;2023-09-18T02:01:49;20.80;99.90
47310;DHT22;33046;52.270;6.832;2023-09-18T02:03:57;20.80;99.90
47310;DHT22;33046;52.270;6.832;2023-09-18T02:06:03;20.80;99.90
47310;DHT22;33046;52.270;6.832;2023-09-18T02:08:10;20.80;99.90
47310;DHT22;33046;52.270;6.832;2023-09-18T02:10:17;20.80;99.90
47310;DHT22;33046;52.270;6.832;2023-09-18T02:12:24;20.80;99.90
47310;DHT22;33046;52.270;6.832;2023-09-18T02:14:33;20.80;99.90
47310;DHT22;33046;52.270;6.832;2023-09-18T02:16:41;20.80;99.90
47310;DHT22;33046;52.270;6.832;2023-09-18T02:18:48;20.90;99.90
47310;DHT22;33046;52.270;6.832;2023-09-18T02:20:55;20.80;99.90
47310;DHT22;33046;52.270;6.832;2023-09-18T02:23:02;20.90;99.90
47310;DHT22;33046;52.270;6.832;2023-09-18T02:25:09;20.90;99.90
47310;DHT22;33046;52.270;6.832;2023-09-18T02:27:16;20.80;99.90
47310;DHT22;33046;52.270;6.832;2023-09-18T02:29:25;20.80;99.90
47310;DHT22;33046;52.270;6.832;2023-09-18T02:31:33;20.80;99.90
47310;DHT22;33046;52.270;6.832;2023-09-18T02:33:40;20.80;99.90
47310;DHT22;33046;52.270;6.832;2023-09-18T02:35:47;20.80;99.90
47310;DHT22;33046;52.270;6.832;2023-09-18T02:37:54;20.80;99.90
47310;DHT22;33046;52.270;6.832;2023-09-18T02:40:01;20.80;99.90
47310;DHT22;33046;52.270;6.832;2023-09-18T02:42:08;20.90;99.90
47310;DHT22;33046;52.270;6.832;2023-09-18T02:44:15;20.90;99.90
47310;DHT22;33046;52.270;6.832;2023-09-18T02:46:22;20.80;99.90
47310;DHT22;33046;52.270;6.832;2023-09-18T02:48:30;20.90;99.90
47310;DHT22;33046;52.270;6.832;2023-09-18T02:50:37;20.90;99.90
47310;DHT22;33046;52.270;6.832;2023-09-18T02:52:44;20.90;99.90
47310;DHT22;33046;52.270;6.832;2023-09-18T02:54:51;20.90;99.90
47310;DHT22;33046;52.270;6.832;2023-09-18T02:56:58;20.90;99.90
47310;DHT22;33046;52.270;6.832;2023-09-18T02:59:05;20.90;99.90
47310;DHT22;33046;52.270;6.832;2023-09-18T03:01:12;20.80;99.90
47310;DHT22;33046;52.270;6.832;2023-09-18T03:03:19;20.90;99.90
47310;DHT22;33046;52.270;6.832;2023-09-18T03:05:31;20.90;99.90
47310;DHT22;33046;52.270;6.832;2023-09-18T03:07:38;20.90;99.90
47310;DHT22;33046;52.270;6.832;2023-09-18T03:09:46;20.90;99.90
47310;DHT22;33046;52.270;6.832;2023-09-18T03:11:53;20.90;99.90
47310;DHT22;33046;52.270;6.832;2023-09-18T03:14:00;20.90;99.90
47310;DHT22;33046;52.270;6.832;2023-09-18T03:16:10;20.90;99.90
47310;DHT22;33046;52.270;6.832;2023-09-18T03:18:17;20.80;99.90
47310;DHT22;33046;52.270;6.832;2023-09-18T03:20:24;20.90;99.90
47310;DHT22;33046;52.270;6.832;2023-09-18T03:22:32;20.90;99.90
47310;DHT22;33046;52.270;6.832;2023-09-18T03:24:39;20.90;99.90
47310;DHT22;33046;52.270;6.832;2023-09-18T03:26:46;20.90;99.90
47310;DHT22;33046;52.270;6.832;2023-09-18T03:28:53;20.90;99.90
47310;DHT22;33046;52.270;6.832;2023-09-18T03:31:00;20.90;99.90
47310;DHT22;33046;52.270;6.832;2023-09-18T03:33:08;20.90;99.90
47310;DHT22;33046;52.270;6.832;2023-09-18T03:35:15;20.90;99.90
47310;DHT22;33046;52.270;6.832;2023-09-18T03:37:22;20.90;99.90
47310;DHT22;33046;52.270;6.832;2023-09-18T03:39:30;20.90;99.90
47310;DHT22;33046;52.270;6.832;2023-09-18T03:41:37;20.90;99.90
47310;DHT22;33046;52.270;6.832;2023-09-18T03:43:45;20.90;99.90
47310;DHT22;33046;52.270;6.832;2023-09-18T03:45:52;20.90;99.90
47310;DHT22;33046;52.270;6.832;2023-09-18T03:47:59;20.90;99.90
47310;DHT22;33046;52.270;6.832;2023-09-18T03:50:07;20.90;99.90
47310;DHT22;33046;52.270;6.832;2023-09-18T03:52:14;20.90;99.90
47310;DHT22;33046;52.270;6.832;2023-09-18T03:54:21;20.90;99.90
47310;DHT22;33046;52.270;6.832;2023-09-18T03:56:29;20.90;99.90
47310;DHT22;33046;52.270;6.832;2023-09-18T03:58:36;20.90;99.90
47310;DHT22;33046;52.270;6.832;2023-09-18T04:00:43;20.90;99.90
47310;DHT22;33046;52.270;6.832;2023-09-18T04:02:50;20.90;99.90
47310;DHT22;33046;52.270;6.832;2023-09-18T04:04:57;20.90;99.90
47310;DHT22;33046;52.270;6.832;2023-09-18T04:07:06;20.90;99.90
47310;DHT22;33046;52.270;6.832;2023-09-18T04:09:13;20.90;99.90
47310;DHT22;33046;52.270;6.832;2023-09-18T04:11:21;20.90;99.90
47310;DHT22;33046;52.270;6.832;2023-09-18T04:13:30;20.90;99.90
47310;DHT22;33046;52.270;6.832;2023-09-18T04:15:37;20.90;99.90
47310;DHT22;33046;52.270;6.832;2023-09-18T04:17:44;20.90;99.90
47310;DHT22;33046;52.270;6.832;2023-09-18T04:19:51;20.90;99.90
47310;DHT22;33046;52.270;6.832;2023-09-18T04:21:58;20.90;99.90
47310;DHT22;33046;52.270;6.832;2023-09-18T04:24:06;20.90;99.90
47310;DHT22;33046;52.270;6.832;2023-09-18T04:26:12;20.90;99.90
47310;DHT22;33046;52.270;6.832;2023-09-18T04:28:21;20.90;99.90
47310;DHT22;33046;52.270;6.832;2023-09-18T04:30:29;20.90;99.90
47310;DHT22;33046;52.270;6.832;2023-09-18T04:32:36;20.90;99.90
47310;DHT22;33046;52.270;6.832;2023-09-18T04:34:43;20.90;99.90
47310;DHT22;33046;52.270;6.832;2023-09-18T04:36:50;21.00;99.90
47310;DHT22;33046;52.270;6.832;2023-09-18T04:38:57;21.00;99.90
47310;DHT22;33046;52.270;6.832;2023-09-18T04:41:04;21.00;99.90
47310;DHT22;33046;52.270;6.832;2023-09-18T04:43:11;21.00;99.90
47310;DHT22;33046;52.270;6.832;2023-09-18T04:45:18;21.00;99.90
47310;DHT22;33046;52.270;6.832;2023-09-18T04:47:27;21.00;99.90
47310;DHT22;33046;52.270;6.832;2023-09-18T04:49:34;21.00;99.90
47310;DHT22;33046;52.270;6.832;2023-09-18T04:51:41;21.00;99.90
47310;DHT22;33046;52.270;6.832;2023-09-18T04:53:48;21.00;99.90
47310;DHT22;33046;52.270;6.832;2023-09-18T04:55:55;21.00;99.90
47310;DHT22;33046;52.270;6.832;2023-09-18T04:58:02;21.00;99.90
47310;DHT22;33046;52.270;6.832;2023-09-18T05:00:10;21.00;99.90
47310;DHT22;33046;52.270;6.832;2023-09-18T05:02:22;21.00;99.90
47310;DHT22;33046;52.270;6.832;2023-09-18T05:04:31;21.00;99.90
47310;DHT22;33046;52.270;6.832;2023-09-18T05:06:38;21.00;99.90
47310;DHT22;33046;52.270;6.832;2023-09-18T05:08:45;21.00;99.90
47310;DHT22;33046;52.270;6.832;2023-09-18T05:10:52;21.00;99.90
47310;DHT22;33046;52.270;6.832;2023-09-18T05:12:59;21.10;99.90
47310;DHT22;33046;52.270;6.832;2023-09-18T05:15:07;21.00;99.90
47310;DHT22;33046;52.270;6.832;2023-09-18T05:17:15;21.00;99.90
47310;DHT22;33046;52.270;6.832;2023-09-18T05:19:22;21.00;99.90
47310;DHT22;33046;52.270;6.832;2023-09-18T05:21:31;21.00;99.90
47310;DHT22;33046;52.270;6.832;2023-09-18T05:23:37;21.00;99.90
47310;DHT22;33046;52.270;6.832;2023-09-18T05:25:44;21.00;99.90
47310;DHT22;33046;52.270;6.832;2023-09-18T05:27:52;21.00;99.90
47310;DHT22;33046;52.270;6.832;2023-09-18T05:29:59;21.00;99.90
47310;DHT22;33046;52.270;6.832;2023-09-18T05:32:06;21.00;99.90
47310;DHT22;33046;52.270;6.832;2023-09-18T05:34:13;21.00;99.90
47310;DHT22;33046;52.270;6.832;2023-09-18T05:36:20;21.00;99.90
47310;DHT22;33046;52.270;6.832;2023-09-18T05:38:28;21.00;99.90
47310;DHT22;33046;52.270;6.832;2023-09-18T05:40:35;21.00;99.90
47310;DHT22;33046;52.270;6.832;2023-09-18T05:42:43;21.00;99.90
47310;DHT22;33046;52.270;6.832;2023-09-18T05:44:50;21.00;99.90
47310;DHT22;33046;52.270;6.832;2023-09-18T05:46:57;21.00;99.90
47310;DHT22;33046;52.270;6.832;2023-09-18T05:49:04;21.00;99.90
47310;DHT22;33046;52.270;6.832;2023-09-18T05:51:11;21.00;99.90
47310;DHT22;33046;52.270;6.832;2023-09-18T05:53:17;21.00;99.90
47310;DHT22;33046;52.270;6.832;2023-09-18T05:55:26;21.10;99.90
47310;DHT22;33046;52.270;6.832;2023-09-18T05:57:33;21.10;99.90
47310;DHT22;33046;52.270;6.832;2023-09-18T05:59:40;21.10;99.90
47310;DHT22;33046;52.270;6.832;2023-09-18T06:01:47;21.10;99.90
47310;DHT22;33046;52.270;6.832;2023-09-18T06:03:54;21.10;99.90
47310;DHT22;33046;52.270;6.832;2023-09-18T06:06:01;21.10;99.90
47310;DHT22;33046;52.270;6.832;2023-09-18T06:08:08;21.10;99.90
47310;DHT22;33046;52.270;6.832;2023-09-18T06:10:16;21.10;99.90
47310;DHT22;33046;52.270;6.832;2023-09-18T06:12:24;21.10;99.90
47310;DHT22;33046;52.270;6.832;2023-09-18T06:14:31;21.10;99.90
47310;DHT22;33046;52.270;6.832;2023-09-18T06:16:38;21.20;99.90
47310;DHT22;33046;52.270;6.832;2023-09-18T06:18:45;21.10;99.90
47310;DHT22;33046;52.270;6.832;2023-09-18T06:20:52;21.10;99.90
47310;DHT22;33046;52.270;6.832;2023-09-18T06:22:59;21.10;99.90
47310;DHT22;33046;52.270;6.832;2023-09-18T06:25:06;21.10;99.90
47310;DHT22;33046;52.270;6.832;2023-09-18T06:27:14;21.10;99.90
47310;DHT22;33046;52.270;6.832;2023-09-18T06:29:22;21.10;99.90
47310;DHT22;33046;52.270;6.832;2023-09-18T06:31:29;21.10;99.90
47310;DHT22;33046;52.270;6.832;2023-09-18T06:33:36;21.10;99.90
47310;DHT22;33046;52.270;6.832;2023-09-18T06:35:42;21.20;99.90
47310;DHT22;33046;52.270;6.832;2023-09-18T06:37:49;21.20;99.90
47310;DHT22;33046;52.270;6.832;2023-09-18T06:39:56;21.20;99.90
47310;DHT22;33046;52.270;6.832;2023-09-18T06:42:04;21.20;99.90
47310;DHT22;33046;52.270;6.832;2023-09-18T06:44:11;21.20;99.90
47310;DHT22;33046;52.270;6.832;2023-09-18T06:46:19;21.20;99.90
47310;DHT22;33046;52.270;6.832;2023-09-18T06:48:27;21.20;99.90
47310;DHT22;33046;52.270;6.832;2023-09-18T06:50:33;21.20;99.90
47310;DHT22;33046;52.270;6.832;2023-09-18T06:52:40;21.20;99.90
47310;DHT22;33046;52.270;6.832;2023-09-18T06:54:47;21.20;99.90
47310;DHT22;33046;52.270;6.832;2023-09-18T06:56:54;21.20;99.90
47310;DHT22;33046;52.270;6.832;2023-09-18T06:59:01;21.20;99.90
47310;DHT22;33046;52.270;6.832;2023-09-18T07:01:08;21.20;99.90
47310;DHT22;33046;52.270;6.832;2023-09-18T07:03:16;21.20;99.90
47310;DHT22;33046;52.270;6.832;2023-09-18T07:05:23;21.20;99.90
47310;DHT22;33046;52.270;6.832;2023-09-18T07:07:30;21.20;99.90
47310;DHT22;33046;52.270;6.832;2023-09-18T07:09:37;21.30;99.90
47310;DHT22;33046;52.270;6.832;2023-09-18T07:11:49;21.30;99.90
47310;DHT22;33046;52.270;6.832;2023-09-18T07:13:56;21.30;99.90
47310;DHT22;33046;52.270;6.832;2023-09-18T07:16:03;21.40;99.90
47310;DHT22;33046;52.270;6.832;2023-09-18T07:18:10;21.40;99.90
47310;DHT22;33046;52.270;6.832;2023-09-18T07:20:19;21.40;99.90
47310;DHT22;33046;52.270;6.832;2023-09-18T07:22:26;21.40;99.90
47310;DHT22;33046;52.270;6.832;2023-09-18T07:24:33;21.40;99.90
47310;DHT22;33046;52.270;6.832;2023-09-18T07:26:40;21.40;99.90
47310;DHT22;33046;52.270;6.832;2023-09-18T07:28:47;21.40;99.90
47310;DHT22;33046;52.270;6.832;2023-09-18T07:30:54;21.40;99.90
47310;DHT22;33046;52.270;6.832;2023-09-18T07:33:01;21.50;99.90
47310;DHT22;33046;52.270;6.832;2023-09-18T07:35:08;21.40;99.90
47310;DHT22;33046;52.270;6.832;2023-09-18T07:37:17;21.50;99.90
47310;DHT22;33046;52.270;6.832;2023-09-18T07:39:24;21.50;99.90
47310;DHT22;33046;52.270;6.832;2023-09-18T07:41:31;21.50;99.90
47310;DHT22;33046;52.270;6.832;2023-09-18T07:43:38;21.50;99.90
47310;DHT22;33046;52.270;6.832;2023-09-18T07:45:45;21.60;99.90
47310;DHT22;33046;52.270;6.832;2023-09-18T07:47:52;21.70;99.90
47310;DHT22;33046;52.270;6.832;2023-09-18T07:49:59;21.70;99.90
47310;DHT22;33046;52.270;6.832;2023-09-18T07:52:06;21.70;99.90
47310;DHT22;33046;52.270;6.832;2023-09-18T07:54:15;21.80;99.90
47310;DHT22;33046;52.270;6.832;2023-09-18T07:56:22;21.90;99.90
47310;DHT22;33046;52.270;6.832;2023-09-18T07:58:29;21.90;99.90
47310;DHT22;33046;52.270;6.832;2023-09-18T08:00:36;21.90;99.90
47310;DHT22;33046;52.270;6.832;2023-09-18T08:02:43;22.00;99.90
47310;DHT22;33046;52.270;6.832;2023-09-18T08:04:50;22.10;99.90
47310;DHT22;33046;52.270;6.832;2023-09-18T08:06:56;22.10;99.90
47310;DHT22;33046;52.270;6.832;2023-09-18T08:09:03;22.10;99.90
47310;DHT22;33046;52.270;6.832;2023-09-18T08:11:12;22.10;99.90
47310;DHT22;33046;52.270;6.832;2023-09-18T08:13:18;22.10;99.90
47310;DHT22;33046;52.270;6.832;2023-09-18T08:15:25;22.10;99.90
47310;DHT22;33046;52.270;6.832;2023-09-18T08:17:32;22.10;99.90
47310;DHT22;33046;52.270;6.832;2023-09-18T08:19:39;22.20;99.90
47310;DHT22;33046;52.270;6.832;2023-09-18T08:21:46;22.10;99.90
47310;DHT22;33046;52.270;6.832;2023-09-18T08:23:53;22.20;99.90
47310;DHT22;33046;52.270;6.832;2023-09-18T08:26:00;22.20;99.90
47310;DHT22;33046;52.270;6.832;2023-09-18T08:28:08;22.20;99.90
47310;DHT22;33046;52.270;6.832;2023-09-18T08:30:15;22.20;99.90
47310;DHT22;33046;52.270;6.832;2023-09-18T08:32:22;22.20;99.90
47310;DHT22;33046;52.270;6.832;2023-09-18T08:34:29;22.30;99.90
47310;DHT22;33046;52.270;6.832;2023-09-18T08:36:36;22.30;99.90
47310;DHT22;33046;52.270;6.832;2023-09-18T08:38:43;22.30;99.90
47310;DHT22;33046;52.270;6.832;2023-09-18T08:40:50;22.40;99.90
47310;DHT22;33046;52.270;6.832;2023-09-18T08:42:58;22.40;99.90
47310;DHT22;33046;52.270;6.832;2023-09-18T08:45:08;22.40;99.90
47310;DHT22;33046;52.270;6.832;2023-09-18T08:47:16;22.40;99.90
47310;DHT22;33046;52.270;6.832;2023-09-18T08:49:24;22.50;99.90
47310;DHT22;33046;52.270;6.832;2023-09-18T08:51:32;22.60;99.90
47310;DHT22;33046;52.270;6.832;2023-09-18T08:53:40;22.60;99.90
47310;DHT22;33046;52.270;6.832;2023-09-18T08:55:47;22.70;99.90
47310;DHT22;33046;52.270;6.832;2023-09-18T08:57:55;22.70;99.90
47310;DHT22;33046;52.270;6.832;2023-09-18T09:00:08;22.80;99.90
47310;DHT22;33046;52.270;6.832;2023-09-18T09:02:15;22.90;99.90
47310;DHT22;33046;52.270;6.832;2023-09-18T09:04:22;23.00;99.90
47310;DHT22;33046;52.270;6.832;2023-09-18T09:06:28;23.10;99.90
47310;DHT22;33046;52.270;6.832;2023-09-18T09:08:36;23.10;99.90
47310;DHT22;33046;52.270;6.832;2023-09-18T09:10:43;23.20;99.90
47310;DHT22;33046;52.270;6.832;2023-09-18T09:12:53;23.20;99.90
47310;DHT22;33046;52.270;6.832;2023-09-18T09:15:02;23.30;99.90
47310;DHT22;33046;52.270;6.832;2023-09-18T09:17:18;23.20;99.90
47310;DHT22;33046;52.270;6.832;2023-09-18T09:19:29;23.30;99.90
47310;DHT22;33046;52.270;6.832;2023-09-18T09:21:39;23.30;99.90
47310;DHT22;33046;52.270;6.832;2023-09-18T09:23:48;23.40;99.90
47310;DHT22;33046;52.270;6.832;2023-09-18T09:26:12;23.40;99.90
47310;DHT22;33046;52.270;6.832;2023-09-18T09:28:29;23.40;99.90
47310;DHT22;33046;52.270;6.832;2023-09-18T09:30:36;23.40;99.90
47310;DHT22;33046;52.270;6.832;2023-09-18T09:32:48;23.40;99.90
47310;DHT22;33046;52.270;6.832;2023-09-18T09:34:57;23.50;99.90
47310;DHT22;33046;52.270;6.832;2023-09-18T09:37:04;23.50;99.90
47310;DHT22;33046;52.270;6.832;2023-09-18T09:39:11;23.50;99.90
47310;DHT22;33046;52.270;6.832;2023-09-18T09:41:18;23.60;99.90
47310;DHT22;33046;52.270;6.832;2023-09-18T09:43:26;23.60;99.90
47310;DHT22;33046;52.270;6.832;2023-09-18T09:45:33;23.60;99.90
47310;DHT22;33046;52.270;6.832;2023-09-18T09:47:40;23.60;99.90
47310;DHT22;33046;52.270;6.832;2023-09-18T09:49:48;23.60;99.90
47310;DHT22;33046;52.270;6.832;2023-09-18T09:51:59;23.60;99.90
47310;DHT22;33046;52.270;6.832;2023-09-18T09:54:06;23.70;99.90
47310;DHT22;33046;52.270;6.832;2023-09-18T09:56:13;23.70;99.90
47310;DHT22;33046;52.270;6.832;2023-09-18T09:58:26;23.80;99.90
47310;DHT22;33046;52.270;6.832;2023-09-18T10:00:35;23.90;99.90
47310;DHT22;33046;52.270;6.832;2023-09-18T10:02:42;23.90;99.90
47310;DHT22;33046;52.270;6.832;2023-09-18T10:04:51;23.90;99.90
47310;DHT22;33046;52.270;6.832;2023-09-18T10:07:06;24.00;99.90
47310;DHT22;33046;52.270;6.832;2023-09-18T10:09:14;24.00;99.90
47310;DHT22;33046;52.270;6.832;2023-09-18T10:11:23;24.00;99.90
47310;DHT22;33046;52.270;6.832;2023-09-18T10:13:33;24.00;99.90
47310;DHT22;33046;52.270;6.832;2023-09-18T10:15:43;24.10;99.90
47310;DHT22;33046;52.270;6.832;2023-09-18T10:17:52;24.20;99.90
47310;DHT22;33046;52.270;6.832;2023-09-18T10:20:07;24.20;99.90
47310;DHT22;33046;52.270;6.832;2023-09-18T10:22:21;24.20;99.90
47310;DHT22;33046;52.270;6.832;2023-09-18T10:24:33;24.20;99.70
47310;DHT22;33046;52.270;6.832;2023-09-18T10:26:46;24.20;99.80
47310;DHT22;33046;52.270;6.832;2023-09-18T10:28:55;24.20;99.30
47310;DHT22;33046;52.270;6.832;2023-09-18T10:31:03;24.20;99.00
47310;DHT22;33046;52.270;6.832;2023-09-18T10:33:10;24.20;98.60
47310;DHT22;33046;52.270;6.832;2023-09-18T10:35:18;24.20;98.80
47310;DHT22;33046;52.270;6.832;2023-09-18T10:37:26;24.30;99.00
47310;DHT22;33046;52.270;6.832;2023-09-18T10:39:36;24.30;98.40
47310;DHT22;33046;52.270;6.832;2023-09-18T10:41:44;24.30;98.30
47310;DHT22;33046;52.270;6.832;2023-09-18T10:43:53;24.40;98.50
47310;DHT22;33046;52.270;6.832;2023-09-18T10:46:00;24.40;98.70
47310;DHT22;33046;52.270;6.832;2023-09-18T10:48:08;24.40;98.70
47310;DHT22;33046;52.270;6.832;2023-09-18T10:50:24;24.50;98.70
47310;DHT22;33046;52.270;6.832;2023-09-18T10:52:31;24.50;98.70
47310;DHT22;33046;52.270;6.832;2023-09-18T10:54:38;24.50;98.20
47310;DHT22;33046;52.270;6.832;2023-09-18T10:56:45;24.40;98.30
47310;DHT22;33046;52.270;6.832;2023-09-18T10:58:58;24.50;98.20
47310;DHT22;33046;52.270;6.832;2023-09-18T11:01:05;24.50;98.00
47310;DHT22;33046;52.270;6.832;2023-09-18T11:03:16;24.40;98.00
47310;DHT22;33046;52.270;6.832;2023-09-18T11:05:31;24.50;98.00
47310;DHT22;33046;52.270;6.832;2023-09-18T11:07:38;24.50;98.10
47310;DHT22;33046;52.270;6.832;2023-09-18T11:09:45;24.60;97.70
47310;DHT22;33046;52.270;6.832;2023-09-18T11:11:52;24.60;97.70
47310;DHT22;33046;52.270;6.832;2023-09-18T11:13:59;24.50;97.60
47310;DHT22;33046;52.270;6.832;2023-09-18T11:16:17;24.50;97.90
47310;DHT22;33046;52.270;6.832;2023-09-18T11:18:32;24.50;97.40
47310;DHT22;33046;52.270;6.832;2023-09-18T11:20:40;24.50;97.40
47310;DHT22;33046;52.270;6.832;2023-09-18T11:22:49;24.60;97.00
47310;DHT22;33046;52.270;6.832;2023-09-18T11:27:53;24.60;97.20
47310;DHT22;33046;52.270;6.832;2023-09-18T11:30:01;24.70;97.10
47310;DHT22;33046;52.270;6.832;2023-09-18T11:32:08;24.70;97.40
47310;DHT22;33046;52.270;6.832;2023-09-18T11:34:20;24.60;96.70
47310;DHT22;33046;52.270;6.832;2023-09-18T11:36:31;24.60;96.80
47310;DHT22;33046;52.270;6.832;2023-09-18T11:38:52;24.60;96.60
47310;DHT22;33046;52.270;6.832;2023-09-18T11:41:22;24.60;96.70
47310;DHT22;33046;52.270;6.832;2023-09-18T11:43:29;24.60;96.10
47310;DHT22;33046;52.270;6.832;2023-09-18T11:45:37;24.60;96.60
47310;DHT22;33046;52.270;6.832;2023-09-18T11:47:44;24.70;96.60
47310;DHT22;33046;52.270;6.832;2023-09-18T11:49:52;24.70;96.90
47310;DHT22;33046;52.270;6.832;2023-09-18T11:52:00;24.60;96.90
47310;DHT22;33046;52.270;6.832;2023-09-18T11:54:08;24.60;96.60
47310;DHT22;33046;52.270;6.832;2023-09-18T11:56:16;24.70;96.80
47310;DHT22;33046;52.270;6.832;2023-09-18T11:58:23;24.70;97.00
47310;DHT22;33046;52.270;6.832;2023-09-18T12:00:30;24.70;96.80
47310;DHT22;33046;52.270;6.832;2023-09-18T12:02:37;24.80;97.00
47310;DHT22;33046;52.270;6.832;2023-09-18T12:04:43;24.70;96.70
47310;DHT22;33046;52.270;6.832;2023-09-18T12:06:50;24.60;97.00
47310;DHT22;33046;52.270;6.832;2023-09-18T12:08:58;24.60;97.10
47310;DHT22;33046;52.270;6.832;2023-09-18T12:11:06;24.60;97.10
47310;DHT22;33046;52.270;6.832;2023-09-18T12:13:13;24.60;97.10
47310;DHT22;33046;52.270;6.832;2023-09-18T12:15:20;24.50;97.30
47310;DHT22;33046;52.270;6.832;2023-09-18T12:17:27;24.40;97.20
47310;DHT22;33046;52.270;6.832;2023-09-18T12:19:34;24.40;97.50
47310;DHT22;33046;52.270;6.832;2023-09-18T12:21:41;24.30;98.40
47310;DHT22;33046;52.270;6.832;2023-09-18T12:23:48;24.20;99.40
47310;DHT22;33046;52.270;6.832;2023-09-18T12:26:00;24.20;99.50
47310;DHT22;33046;52.270;6.832;2023-09-18T12:28:07;24.20;99.70
47310;DHT22;33046;52.270;6.832;2023-09-18T12:30:15;24.20;99.90
47310;DHT22;33046;52.270;6.832;2023-09-18T12:32:22;24.30;99.90
47310;DHT22;33046;52.270;6.832;2023-09-18T12:34:29;24.30;99.90
47310;DHT22;33046;52.270;6.832;2023-09-18T12:36:36;24.30;99.90
47310;DHT22;33046;52.270;6.832;2023-09-18T12:38:43;24.30;99.90
47310;DHT22;33046;52.270;6.832;2023-09-18T12:40:50;24.30;99.90
47310;DHT22;33046;52.270;6.832;2023-09-18T12:43:00;24.40;99.90
47310;DHT22;33046;52.270;6.832;2023-09-18T12:45:07;24.40;99.90
47310;DHT22;33046;52.270;6.832;2023-09-18T12:47:15;24.40;99.50
47310;DHT22;33046;52.270;6.832;2023-09-18T12:49:23;24.40;99.10
47310;DHT22;33046;52.270;6.832;2023-09-18T12:51:30;24.40;98.40
47310;DHT22;33046;52.270;6.832;2023-09-18T12:53:37;24.40;98.10
47310;DHT22;33046;52.270;6.832;2023-09-18T12:55:44;24.40;97.50
47310;DHT22;33046;52.270;6.832;2023-09-18T12:57:51;24.50;97.40
47310;DHT22;33046;52.270;6.832;2023-09-18T12:59:59;24.40;97.10
47310;DHT22;33046;52.270;6.832;2023-09-18T13:02:17;24.50;97.40
47310;DHT22;33046;52.270;6.832;2023-09-18T13:04:24;24.60;97.70
47310;DHT22;33046;52.270;6.832;2023-09-18T13:06:31;24.60;97.70
47310;DHT22;33046;52.270;6.832;2023-09-18T13:08:38;24.50;97.70
47310;DHT22;33046;52.270;6.832;2023-09-18T13:10:46;24.50;97.80
47310;DHT22;33046;52.270;6.832;2023-09-18T13:12:53;24.60;98.20
47310;DHT22;33046;52.270;6.832;2023-09-18T13:15:03;24.60;96.90
47310;DHT22;33046;52.270;6.832;2023-09-18T13:17:10;24.60;97.00
47310;DHT22;33046;52.270;6.832;2023-09-18T13:19:17;24.60;96.30
47310;DHT22;33046;52.270;6.832;2023-09-18T13:21:24;24.60;96.10
47310;DHT22;33046;52.270;6.832;2023-09-18T13:23:31;24.60;96.60
47310;DHT22;33046;52.270;6.832;2023-09-18T13:25:40;24.60;96.30
47310;DHT22;33046;52.270;6.832;2023-09-18T13:27:47;24.60;95.70
47310;DHT22;33046;52.270;6.832;2023-09-18T13:29:54;24.60;95.30